createdAt,value
2022-10-17T00:00:22.453Z,6.25
2022-10-17T00:02:50.409Z,6.75
2022-10-17T00:05:17.982Z,8.50
2022-10-17T00:07:45.549Z,3.50
2022-10-17T00:10:13.201Z,8.50
2022-10-17T00:12:41.220Z,6.00
2022-10-17T00:15:09.387Z,6.75
2022-10-17T00:17:38.471Z,2.50
2022-10-17T00:20:06.059Z,4.00
2022-10-17T00:22:33.647Z,7.50
2022-10-17T00:25:01.316Z,4.50
2022-10-17T00:27:29.889Z,5.00
2022-10-17T00:29:57.640Z,7.00
2022-10-17T00:32:25.583Z,3.25
2022-10-17T00:34:53.833Z,6.00
2022-10-17T00:37:21.384Z,7.00
2022-10-17T00:39:49.343Z,8.00
2022-10-17T00:42:16.896Z,6.00
2022-10-17T00:44:47.502Z,7.00
2022-10-17T00:47:15.174Z,9.50
2022-10-17T00:49:42.771Z,9.25
2022-10-17T00:52:10.687Z,7.00
2022-10-17T00:54:38.291Z,7.00
2022-10-17T00:57:06.245Z,9.75
2022-10-17T00:59:33.818Z,8.80
2022-10-17T01:02:01.399Z,6.40
2022-10-17T01:04:29.551Z,6.80
2022-10-17T01:06:57.071Z,6.60
2022-10-17T01:09:24.638Z,6.00
2022-10-17T01:11:52.214Z,7.00
2022-10-17T01:14:19.860Z,7.80
2022-10-17T01:16:49.576Z,6.00
2022-10-17T01:19:17.189Z,6.40
2022-10-17T01:21:44.754Z,6.60
2022-10-17T01:24:12.332Z,6.40
2022-10-17T01:26:39.885Z,3.00
2022-10-17T01:29:07.912Z,6.20
2022-10-17T01:31:35.478Z,7.00
2022-10-17T01:34:03.041Z,4.00
2022-10-17T01:36:30.602Z,6.80
2022-10-17T01:38:58.192Z,6.80
2022-10-17T01:41:26.391Z,6.80
2022-10-17T01:43:53.928Z,6.00
2022-10-17T01:46:21.535Z,6.40
2022-10-17T01:48:49.090Z,6.60
2022-10-17T01:51:17.013Z,8.60
2022-10-17T01:53:44.888Z,4.40
2022-10-17T01:56:12.429Z,6.80
2022-10-17T01:58:39.997Z,9.00
2022-10-17T02:01:07.719Z,6.60
2022-10-17T02:03:35.314Z,5.60
2022-10-17T02:06:03.408Z,9.40
2022-10-17T02:08:30.992Z,6.60
2022-10-17T02:10:58.552Z,6.60
2022-10-17T02:13:26.105Z,5.20
2022-10-17T02:15:53.702Z,7.40
2022-10-17T02:18:21.827Z,4.40
2022-10-17T02:20:49.408Z,6.00
2022-10-17T02:23:20.343Z,4.00
2022-10-17T02:25:47.952Z,9.20
2022-10-17T02:28:15.542Z,8.60
2022-10-17T02:30:43.745Z,8.40
2022-10-17T02:33:11.439Z,6.40
2022-10-17T02:35:39.003Z,6.00
2022-10-17T02:38:06.691Z,8.60
2022-10-17T02:40:34.234Z,7.00
2022-10-17T02:43:02.610Z,4.80
2022-10-17T02:45:30.230Z,7.80
2022-10-17T02:47:57.781Z,9.20
2022-10-17T02:50:25.399Z,8.20
2022-10-17T02:52:52.987Z,9.00
2022-10-17T02:55:20.875Z,4.00
2022-10-17T02:57:48.419Z,6.00
2022-10-17T03:00:15.991Z,6.00
2022-10-17T03:02:43.542Z,6.80
2022-10-17T03:05:11.103Z,6.00
2022-10-17T03:07:40.486Z,6.60
2022-10-17T03:10:08.022Z,7.00
2022-10-17T03:12:35.544Z,9.00
2022-10-17T03:15:03.118Z,6.00
2022-10-17T03:17:30.723Z,6.00
2022-10-17T03:19:58.757Z,7.00
2022-10-17T03:22:26.543Z,7.00
2022-10-17T03:24:54.336Z,6.00
2022-10-17T03:27:21.840Z,3.60
2022-10-17T03:29:49.708Z,9.00
2022-10-17T03:32:17.626Z,7.40
2022-10-17T03:34:45.164Z,7.80
2022-10-17T03:37:12.764Z,7.40
2022-10-17T03:39:40.298Z,6.40
2022-10-17T03:42:07.842Z,6.20
2022-10-17T03:44:35.945Z,10.00
2022-10-17T03:47:03.500Z,6.00
2022-10-17T03:49:31.038Z,6.60
2022-10-17T03:51:59.074Z,8.00
2022-10-17T03:54:26.596Z,5.40
2022-10-17T03:56:54.744Z,7.00
2022-10-17T03:59:22.352Z,5.20
2022-10-17T04:01:49.892Z,3.80
2022-10-17T04:04:17.427Z,7.40
2022-10-17T04:06:44.997Z,6.40
2022-10-17T04:09:13.118Z,7.40
2022-10-17T04:11:40.645Z,4.00
2022-10-17T04:14:08.699Z,7.00
2022-10-17T04:16:36.251Z,9.80
2022-10-17T04:19:04.167Z,7.40
2022-10-17T04:21:32.121Z,6.20
2022-10-17T04:23:59.683Z,9.00
2022-10-17T04:26:27.252Z,7.80
2022-10-17T04:28:54.869Z,7.80
2022-10-17T04:31:22.404Z,9.80
2022-10-17T04:33:50.542Z,6.80
2022-10-17T04:36:18.502Z,4.40
2022-10-17T04:38:46.059Z,3.60
2022-10-17T04:41:13.660Z,7.00
2022-10-17T04:43:41.235Z,4.00
2022-10-17T04:46:09.359Z,6.80
2022-10-17T04:48:36.921Z,4.00
2022-10-17T04:51:04.506Z,4.80
2022-10-17T04:53:32.158Z,6.00
2022-10-17T04:55:59.681Z,7.80
2022-10-17T04:58:29.135Z,6.00
2022-10-17T05:00:56.758Z,3.20
2022-10-17T05:03:24.323Z,7.00
2022-10-17T05:05:51.931Z,7.40
2022-10-17T05:08:19.479Z,6.40
2022-10-17T05:10:47.995Z,9.00
2022-10-17T05:13:15.622Z,10.20
2022-10-17T05:15:43.193Z,6.20
2022-10-17T05:18:11.178Z,5.20
2022-10-17T05:20:39.387Z,6.40
2022-10-17T05:23:07.121Z,6.00
2022-10-17T05:25:34.679Z,9.00
2022-10-17T05:28:02.276Z,7.00
2022-10-17T05:30:33.732Z,5.60
2022-10-17T05:33:04.454Z,6.20
2022-10-17T05:35:32.343Z,5.20
2022-10-17T05:38:00.696Z,2.20
2022-10-17T05:40:28.273Z,6.00
2022-10-17T05:42:55.807Z,4.80
2022-10-17T05:45:23.347Z,4.40
2022-10-17T05:47:50.994Z,4.40
2022-10-17T05:50:21.055Z,6.20
2022-10-17T05:52:48.605Z,6.60
2022-10-17T05:55:16.212Z,7.80
2022-10-17T05:57:43.772Z,6.40
2022-10-17T06:00:11.905Z,4.40
2022-10-17T06:02:40.009Z,6.00
2022-10-17T06:05:07.585Z,9.20
2022-10-17T06:07:35.125Z,6.80
2022-10-17T06:10:02.769Z,6.00
2022-10-17T06:12:31.199Z,9.20
2022-10-17T06:14:59.063Z,9.20
2022-10-17T06:17:26.765Z,8.20
2022-10-17T06:19:54.373Z,7.60
2022-10-17T06:22:21.995Z,4.80
2022-10-17T06:24:53.215Z,6.80
2022-10-17T06:27:20.800Z,7.60
2022-10-17T06:29:48.393Z,5.80
2022-10-17T06:32:16.047Z,6.80
2022-10-17T06:34:43.652Z,4.80
2022-10-17T06:37:11.833Z,7.40
2022-10-17T06:39:39.528Z,4.00
2022-10-17T06:42:07.097Z,5.60
2022-10-17T06:44:34.688Z,3.80
2022-10-17T06:47:02.346Z,7.40
2022-10-17T06:49:30.240Z,6.00
2022-10-17T06:51:57.859Z,7.00
2022-10-17T06:54:25.546Z,8.40
2022-10-17T06:56:53.164Z,8.40
2022-10-17T06:59:20.817Z,10.00
2022-10-17T07:01:49.017Z,8.40
2022-10-17T07:04:16.675Z,6.20
2022-10-17T07:06:44.736Z,6.20
2022-10-17T07:09:12.491Z,6.00
2022-10-17T07:11:40.402Z,5.20
2022-10-17T07:14:08.951Z,7.60
2022-10-17T07:16:36.638Z,6.80
2022-10-17T07:19:04.366Z,7.60
2022-10-17T07:21:35.249Z,4.60
2022-10-17T07:24:07.285Z,6.80
2022-10-17T07:26:35.602Z,3.20
2022-10-17T07:29:03.788Z,7.60
2022-10-17T07:31:31.615Z,6.60
2022-10-17T07:33:59.320Z,7.00
2022-10-17T07:36:27.037Z,5.40
2022-10-17T07:38:55.150Z,4.00
2022-10-17T07:41:22.792Z,7.20
2022-10-17T07:43:50.424Z,3.60
2022-10-17T07:46:18.211Z,8.60
2022-10-17T07:48:46.308Z,7.00
2022-10-17T07:51:15.913Z,8.80
2022-10-17T07:53:47.975Z,6.60
2022-10-17T07:56:16.582Z,7.00
2022-10-17T07:58:44.385Z,4.80
2022-10-17T08:01:16.208Z,8.80
2022-10-17T08:03:44.541Z,6.60
2022-10-17T08:06:12.257Z,7.00
2022-10-17T08:08:40.055Z,7.00
2022-10-17T08:11:07.796Z,5.80
2022-10-17T08:13:35.526Z,8.00
2022-10-17T08:16:03.746Z,7.40
2022-10-17T08:18:31.533Z,5.40
2022-10-17T08:21:00.208Z,4.20
2022-10-17T08:23:28.119Z,4.60
2022-10-17T08:25:55.767Z,5.40
2022-10-17T08:28:24.200Z,7.20
2022-10-17T08:30:52.035Z,6.20
2022-10-17T08:33:20.060Z,5.80
2022-10-17T08:35:47.861Z,5.00
2022-10-17T08:38:16.880Z,7.00
2022-10-17T08:40:47.935Z,5.40
2022-10-17T08:43:15.649Z,5.00
2022-10-17T08:45:43.412Z,7.00
2022-10-17T08:48:11.159Z,7.00
2022-10-17T08:50:38.882Z,4.60
2022-10-17T08:53:07.125Z,5.80
2022-10-17T08:55:35.785Z,5.00
2022-10-17T08:58:04.782Z,5.00
2022-10-17T09:00:32.577Z,9.60
2022-10-17T09:03:00.270Z,5.80
2022-10-17T09:05:28.728Z,4.80
2022-10-17T09:07:56.512Z,7.60
2022-10-17T09:10:24.199Z,5.80
2022-10-17T09:12:51.898Z,5.00
2022-10-17T09:15:19.566Z,6.60
2022-10-17T09:17:50.268Z,4.20
2022-10-17T09:20:17.904Z,2.00
2022-10-17T09:22:45.682Z,8.40
2022-10-17T09:25:13.574Z,5.60
2022-10-17T09:27:41.416Z,5.00
2022-10-17T09:30:13.031Z,6.40
2022-10-17T09:32:44.953Z,6.80
2022-10-17T09:35:12.825Z,8.00
2022-10-17T09:37:40.497Z,5.40
2022-10-17T09:40:08.152Z,7.40
2022-10-17T09:42:36.365Z,8.40
2022-10-17T09:45:04.810Z,5.00
2022-10-17T09:47:32.568Z,5.60
2022-10-17T09:50:00.307Z,5.80
2022-10-17T09:52:28.320Z,6.00
2022-10-17T09:54:56.829Z,4.80
2022-10-17T09:57:25.696Z,4.60
2022-10-17T09:59:53.889Z,5.80
2022-10-17T10:02:21.629Z,8.40
2022-10-17T10:05:03.771Z,6.40
2022-10-17T10:07:33.056Z,6.60
2022-10-17T10:10:00.860Z,7.20
2022-10-17T10:12:28.855Z,6.20
2022-10-17T10:14:56.705Z,5.80
2022-10-17T10:17:24.600Z,5.80
2022-10-17T10:19:52.849Z,6.00
2022-10-17T10:22:20.549Z,6.80
2022-10-17T10:24:48.523Z,4.80
2022-10-17T10:27:16.367Z,6.00
2022-10-17T10:29:44.778Z,6.80
2022-10-17T10:32:13.311Z,5.80
2022-10-17T10:34:42.501Z,8.40
2022-10-17T10:37:13.438Z,6.00
2022-10-17T10:39:44.104Z,8.60
2022-10-17T10:42:11.917Z,5.40
2022-10-17T10:44:41.304Z,6.00
2022-10-17T10:47:09.196Z,7.80
2022-10-17T10:49:36.916Z,7.80
2022-10-17T10:52:04.837Z,7.60
2022-10-17T10:54:32.790Z,8.60
2022-10-17T10:57:01.009Z,7.60
2022-10-17T10:59:29.172Z,6.80
2022-10-17T11:01:57.479Z,5.40
2022-10-17T11:04:25.285Z,7.20
2022-10-17T11:06:53.055Z,6.00
2022-10-17T11:09:21.644Z,5.00
2022-10-17T11:11:49.498Z,5.60
2022-10-17T11:14:17.259Z,6.00
2022-10-17T11:16:44.968Z,6.40
2022-10-17T11:19:14.072Z,4.60
2022-10-17T11:21:42.517Z,5.60
2022-10-17T11:24:10.854Z,6.40
2022-10-17T11:26:38.556Z,6.80
2022-10-17T11:29:06.730Z,5.00
2022-10-17T11:31:34.575Z,7.20
2022-10-17T11:34:02.983Z,6.40
2022-10-17T11:36:30.696Z,4.60
2022-10-17T11:38:58.548Z,8.00
2022-10-17T11:41:26.411Z,5.00
2022-10-17T11:43:54.310Z,4.00
2022-10-17T11:46:23.993Z,8.20
2022-10-17T11:48:51.751Z,8.00
2022-10-17T11:54:07.351Z,8.20
2022-10-17T11:56:38.028Z,5.20
2022-10-17T11:59:08.199Z,3.60
2022-10-17T12:01:36.130Z,8.00
2022-10-17T12:04:03.963Z,6.80
2022-10-17T12:06:32.233Z,6.80
2022-10-17T12:09:00.705Z,4.80
2022-10-17T12:11:28.688Z,6.00
2022-10-17T12:13:57.146Z,4.20
2022-10-17T12:16:25.043Z,5.00
2022-10-17T12:18:52.808Z,10.20
2022-10-17T12:21:22.452Z,6.00
2022-10-17T12:23:50.400Z,9.80
2022-10-17T12:26:18.176Z,6.40
2022-10-17T12:28:46.469Z,7.20
2022-10-17T12:31:14.765Z,6.00
2022-10-17T12:33:42.821Z,8.20
2022-10-17T12:36:10.625Z,5.40
2022-10-17T12:38:38.371Z,10.20
2022-10-17T12:41:06.537Z,9.40
2022-10-17T12:43:34.391Z,8.80
2022-10-17T12:46:02.714Z,8.40
2022-10-17T12:48:30.486Z,8.00
2022-10-17T12:51:17.614Z,8.40
2022-10-17T12:53:46.716Z,7.80
2022-10-17T12:56:14.901Z,6.40
2022-10-17T12:58:42.643Z,5.60
2022-10-17T13:01:23.555Z,5.80
2022-10-17T13:03:52.816Z,6.40
2022-10-17T13:06:20.921Z,9.60
2022-10-17T13:08:52.207Z,8.00
2022-10-17T13:11:23.164Z,9.00
2022-10-17T13:13:52.194Z,9.00
2022-10-17T13:16:19.978Z,8.80
2022-10-17T13:18:48.262Z,8.20
2022-10-17T13:21:16.236Z,5.80
2022-10-17T13:23:44.134Z,4.60
2022-10-17T13:26:11.962Z,8.00
2022-10-17T13:28:40.043Z,6.00
2022-10-17T13:31:08.744Z,5.60
2022-10-17T13:33:38.337Z,9.00
2022-10-17T13:36:06.231Z,7.20
2022-10-17T13:38:35.785Z,6.00
2022-10-17T13:41:33.532Z,5.40
2022-10-17T13:43:54.566Z,7.20
2022-10-17T13:46:36.800Z,5.60
2022-10-17T13:49:05.626Z,5.00
2022-10-17T13:51:33.740Z,5.60
2022-10-17T13:54:03.244Z,5.20
2022-10-17T13:56:32.090Z,8.40
2022-10-17T13:59:00.116Z,7.20
2022-10-17T14:01:28.033Z,6.00
2022-10-17T14:04:07.971Z,7.60
2022-10-17T14:06:37.636Z,6.00
2022-10-17T14:09:05.595Z,8.60
2022-10-17T14:11:33.310Z,5.20
2022-10-17T14:14:01.231Z,7.20
2022-10-17T14:16:29.555Z,4.00
2022-10-17T14:18:58.184Z,7.80
2022-10-17T14:21:43.235Z,7.40
2022-10-17T14:24:12.162Z,5.00
2022-10-17T14:26:40.032Z,8.00
2022-10-17T14:29:08.593Z,8.00
2022-10-17T14:31:36.470Z,6.00
2022-10-17T14:34:04.773Z,5.00
2022-10-17T14:36:32.742Z,5.80
2022-10-17T14:39:01.768Z,4.40
2022-10-17T14:41:47.302Z,8.20
2022-10-17T14:44:15.535Z,7.60
2022-10-17T14:46:47.293Z,5.80
2022-10-17T14:49:23.184Z,8.40
2022-10-17T14:52:03.947Z,7.20
2022-10-17T14:54:35.672Z,8.60
2022-10-17T14:57:03.584Z,5.00
2022-10-17T14:59:52.860Z,5.60
2022-10-17T15:02:20.209Z,6.00
2022-10-17T15:04:48.131Z,6.40
2022-10-17T15:07:15.830Z,11.00
2022-10-17T15:09:43.798Z,5.80
2022-10-17T15:12:11.634Z,8.80
2022-10-17T15:14:41.697Z,6.00
2022-10-17T15:17:09.672Z,5.00
2022-10-17T15:19:37.573Z,7.20
2022-10-17T15:22:05.588Z,7.00
2022-10-17T15:24:33.491Z,6.20
2022-10-17T15:27:02.424Z,6.00
2022-10-17T15:29:30.347Z,6.80
2022-10-17T15:31:58.298Z,5.00
2022-10-17T15:34:26.196Z,6.60
2022-10-17T15:36:59.025Z,7.20
2022-10-17T15:39:27.749Z,7.00
2022-10-17T15:41:55.578Z,6.00
2022-10-17T15:44:23.418Z,4.20
2022-10-17T15:46:51.348Z,7.00
2022-10-17T15:49:19.960Z,7.40
2022-10-17T15:51:53.042Z,8.20
2022-10-17T15:54:23.013Z,8.00
2022-10-17T15:56:50.907Z,4.60
2022-10-17T15:59:18.742Z,9.00
2022-10-17T16:01:46.567Z,7.40
2022-10-17T16:04:16.254Z,9.40
2022-10-17T16:06:44.179Z,9.80
2022-10-17T16:09:11.991Z,4.60
2022-10-17T16:11:39.931Z,5.80
2022-10-17T16:14:07.807Z,8.60
2022-10-17T16:16:35.900Z,4.20
2022-10-17T16:19:03.865Z,7.00
2022-10-17T16:24:04.460Z,8.00
2022-10-17T16:26:32.354Z,8.00
2022-10-17T16:29:03.500Z,3.60
2022-10-17T16:31:31.415Z,7.20
2022-10-17T16:33:59.215Z,5.80
2022-10-17T16:36:27.038Z,8.20
2022-10-17T16:38:55.432Z,4.60
2022-10-17T16:41:24.150Z,5.00
2022-10-17T16:43:52.065Z,7.80
2022-10-17T16:46:19.922Z,5.00
2022-10-17T16:48:47.793Z,8.00
2022-10-17T16:51:15.680Z,7.20
2022-10-17T16:53:45.450Z,6.60
2022-10-17T16:56:13.343Z,8.00
2022-10-17T16:58:41.124Z,8.40
2022-10-17T17:01:09.060Z,5.40
2022-10-17T17:03:36.940Z,7.00
2022-10-17T17:06:05.588Z,4.00
2022-10-17T17:08:34.397Z,7.00
2022-10-17T17:11:02.126Z,5.80
2022-10-17T17:13:30.419Z,4.00
2022-10-17T17:15:58.255Z,6.40
2022-10-17T17:18:26.546Z,10.00
2022-10-17T17:20:54.445Z,11.80
2022-10-17T17:23:22.796Z,13.00
2022-10-17T17:25:50.900Z,8.60
2022-10-17T17:28:18.761Z,10.00
2022-10-17T17:30:47.329Z,12.20
2022-10-17T17:33:15.343Z,8.40
2022-10-17T17:35:43.101Z,15.00
2022-10-17T17:38:11.076Z,13.60
2022-10-17T17:40:38.954Z,9.00
2022-10-17T17:43:07.424Z,11.60
2022-10-17T17:45:35.314Z,9.00
2022-10-17T17:48:03.235Z,7.00
2022-10-17T17:50:31.036Z,11.40
2022-10-17T17:52:58.869Z,11.20
2022-10-17T17:55:27.510Z,9.20
2022-10-17T17:57:55.512Z,9.40
2022-10-17T18:00:23.505Z,8.40
2022-10-17T18:02:51.235Z,9.80
2022-10-17T18:05:19.078Z,7.00
2022-10-17T18:07:48.204Z,9.40
2022-10-17T18:10:15.969Z,7.80
2022-10-17T18:12:43.905Z,10.00
2022-10-17T18:15:11.779Z,8.60
2022-10-17T18:17:39.714Z,8.00
2022-10-17T18:20:08.720Z,8.60
2022-10-17T18:22:37.118Z,9.20
2022-10-17T18:25:05.827Z,10.40
2022-10-17T18:27:34.151Z,9.00
2022-10-17T18:30:01.997Z,12.40
2022-10-17T18:32:30.834Z,8.20
2022-10-17T18:34:59.016Z,7.00
2022-10-17T18:37:26.894Z,11.40
2022-10-17T18:39:56.050Z,6.00
2022-10-17T18:42:23.868Z,9.80
2022-10-17T18:44:52.156Z,11.20
2022-10-17T18:47:19.980Z,9.60
2022-10-17T18:49:48.437Z,6.60
2022-10-17T18:52:16.283Z,9.60
2022-10-17T18:54:44.298Z,9.80
2022-10-17T18:57:12.848Z,9.00
2022-10-17T18:59:40.894Z,10.80
2022-10-17T19:02:10.059Z,12.40
2022-10-17T19:04:38.003Z,10.00
2022-10-17T19:07:06.071Z,10.60
2022-10-17T19:09:34.418Z,15.40
2022-10-17T19:12:02.702Z,9.60
2022-10-17T19:14:30.836Z,10.00
2022-10-17T19:16:59.930Z,7.40
2022-10-17T19:19:27.696Z,8.80
2022-10-17T19:21:55.947Z,7.40
2022-10-17T19:24:23.844Z,10.00
2022-10-17T19:26:53.573Z,10.00
2022-10-17T19:29:21.368Z,9.20
2022-10-17T19:31:49.338Z,11.60
2022-10-17T19:34:18.989Z,15.40
2022-10-17T19:36:46.807Z,11.60
2022-10-17T19:39:14.687Z,12.60
2022-10-17T19:41:42.608Z,6.40
2022-10-17T19:44:10.568Z,15.20
2022-10-17T19:46:38.845Z,17.40
2022-10-17T19:49:06.725Z,20.40
2022-10-17T19:51:34.623Z,24.60
2022-10-17T19:54:02.418Z,19.40
2022-10-17T19:56:30.495Z,15.20
2022-10-17T19:58:59.102Z,16.20
2022-10-17T20:01:27.082Z,14.40
2022-10-17T20:03:54.874Z,7.00
2022-10-17T20:06:22.807Z,6.80
2022-10-17T20:08:50.513Z,12.60
2022-10-17T20:11:18.671Z,8.20
2022-10-17T20:13:46.579Z,11.40
2022-10-17T20:16:14.389Z,11.60
2022-10-17T20:18:42.201Z,7.40
2022-10-17T20:21:10.069Z,10.60
2022-10-17T20:23:38.378Z,7.00
2022-10-17T20:26:25.407Z,4.80
2022-10-17T20:28:54.188Z,6.00
2022-10-17T20:31:22.089Z,9.00
2022-10-17T20:33:50.734Z,9.60
2022-10-17T20:36:23.493Z,6.00
2022-10-17T20:38:51.598Z,7.60
2022-10-17T20:41:19.435Z,6.00
2022-10-17T20:43:47.191Z,7.40
2022-10-17T20:46:29.460Z,3.00
2022-10-17T20:49:03.341Z,9.00
2022-10-17T20:51:31.148Z,7.40
2022-10-17T20:53:59.010Z,6.20
2022-10-17T20:56:27.472Z,7.00
2022-10-17T20:58:55.813Z,8.60
2022-10-17T21:01:23.767Z,10.00
2022-10-17T21:03:51.609Z,7.00
2022-10-17T21:06:19.351Z,7.00
2022-10-17T21:08:47.887Z,10.00
2022-10-17T21:11:15.684Z,3.60
2022-10-17T21:13:43.466Z,5.20
2022-10-17T21:16:11.260Z,7.00
2022-10-17T21:18:39.134Z,7.40
2022-10-17T21:21:09.274Z,8.80
2022-10-17T21:23:36.995Z,5.60
2022-10-17T21:26:07.439Z,4.00
2022-10-17T21:28:35.697Z,9.00
2022-10-17T21:31:03.369Z,6.00
2022-10-17T21:33:31.844Z,7.00
2022-10-17T21:35:59.588Z,6.20
2022-10-17T21:38:27.398Z,4.00
2022-10-17T21:40:56.092Z,4.00
2022-10-17T21:43:23.971Z,4.80
2022-10-17T21:45:51.959Z,3.00
2022-10-17T21:48:19.750Z,1.00
2022-10-17T21:50:47.431Z,1.00
2022-10-17T21:53:15.130Z,1.80
2022-10-17T21:55:42.906Z,3.00
2022-10-17T21:58:11.009Z,4.60
2022-10-17T22:00:38.827Z,1.00
2022-10-17T22:03:07.448Z,2.20
2022-10-17T22:05:35.061Z,3.00
2022-10-17T22:08:02.804Z,2.60
2022-10-17T22:10:30.982Z,3.00
2022-10-17T22:12:58.706Z,3.00
2022-10-17T22:15:26.349Z,4.00
2022-10-17T22:17:54.141Z,3.00
2022-10-17T22:20:21.919Z,2.20
2022-10-17T22:22:49.839Z,3.80
2022-10-17T22:25:17.933Z,2.40
2022-10-17T22:27:45.575Z,3.60
2022-10-17T22:30:13.198Z,3.00
2022-10-17T22:32:40.932Z,3.60
2022-10-17T22:35:09.059Z,3.60
2022-10-17T22:37:36.658Z,2.60
2022-10-17T22:40:04.400Z,3.40
2022-10-17T22:42:34.579Z,1.80
2022-10-17T22:45:02.960Z,3.60
2022-10-17T22:47:31.365Z,3.40
2022-10-17T22:49:59.308Z,3.60
2022-10-17T22:52:27.057Z,3.80
2022-10-17T22:54:54.798Z,3.40
2022-10-17T22:57:22.440Z,3.00
2022-10-17T22:59:50.269Z,3.00
2022-10-17T23:02:17.894Z,2.60
2022-10-17T23:04:45.548Z,4.80
2022-10-17T23:07:14.367Z,1.00
2022-10-17T23:09:42.003Z,4.00
2022-10-17T23:12:10.412Z,3.60
2022-10-17T23:14:38.740Z,4.00
2022-10-17T23:17:06.368Z,3.00
2022-10-17T23:19:34.051Z,3.40
2022-10-17T23:22:01.710Z,2.80
2022-10-17T23:24:29.684Z,2.80
2022-10-17T23:26:57.306Z,3.00
2022-10-17T23:29:25.325Z,4.80
2022-10-17T23:31:53.011Z,1.00
2022-10-17T23:34:20.615Z,4.00
2022-10-17T23:36:48.452Z,4.80
2022-10-17T23:39:16.143Z,0.60
2022-10-17T23:41:43.729Z,4.00
2022-10-17T23:44:11.407Z,10.20
2022-10-17T23:46:39.066Z,4.80
2022-10-17T23:49:06.961Z,5.60
2022-10-17T23:51:34.817Z,5.20
2022-10-17T23:54:02.562Z,4.60
2022-10-17T23:56:30.147Z,4.00
2022-10-17T23:58:57.697Z,3.40
